Chesapeake — WWD6590 — position and weather

sailwx.info

Track history (hours):
 
Tides and Currents Weather Stations Pressure Air Temp Water Temp Dewpoint Dewpoint Depression Visibility Wind Speed Wind Dir Waves Ship Positions

Chesapeake

Last reported at 2017-Oct-06 21:08 UTC. Time now 2017-Dec-18 08:59 UTC.
Position N 37°52' W 122°19'.
Warning: this ship's position is months out of date.

Length 14 m.

Type: Sailing vessel. MMSI: 367174970.

Date/timePositionNaut miles runAvg speedWind from/ knotsBaromVisibWave heightAir tempDewpointWater temp
2017-Oct-06 21:08N 37°52' W 122°19'1 6.0
2017-Oct-06 21:00N 37°52' W 122°20'6 4.4
2017-Oct-06 19:39N 37°50' W 122°27'1 7.8
2017-Oct-06 19:30N 37°49' W 122°28'1 1.9
2017-Oct-06 19:00N 37°50' W 122°27'1 2.5
2017-Oct-06 18:30N 37°49' W 122°25'3 5.3
2017-Oct-06 17:59N 37°51' W 122°22'3 5.9
2017-Oct-06 17:30N 37°52' W 122°19'  
2017-Sep-28 21:10N 37°52' W 122°19'1 4.8
2017-Sep-28 20:56N 37°51' W 122°20'5 7.1
2017-Sep-28 20:14N 37°49' W 122°26'2 6.6
2017-Sep-28 20:00N 37°49' W 122°28'16 5.6
2017-Sep-28 17:04N 37°33' W 122°33'1 6.1
2017-Sep-28 16:55N 37°32' W 122°33'2 5.9
2017-Sep-28 16:30N 37°30' W 122°32'3 5.3
2017-Sep-28 16:00N 37°29' W 122°29'1 0.1
2017-Sep-27 20:43N 37°30' W 122°29'0 0.3
2017-Sep-27 20:30N 37°30' W 122°29'2 4.6
2017-Sep-27 20:00N 37°28' W 122°30'  
Track history (hours):
 
Tides and Currents Weather Stations Pressure Air Temp Water Temp Dewpoint Dewpoint Depression Visibility Wind Speed Wind Dir Waves Ship Positions

Chesapeake

Last reported at 2017-Oct-06 21:08 UTC. Time now 2017-Dec-18 08:59 UTC.
Position N 37°52' W 122°19'.
Warning: this ship's position is months out of date.

Length 14 m.

Type: Sailing vessel. MMSI: 367174970.

Date/timePositionNaut miles runAvg speedWind from/ knotsBaromVisibWave heightAir tempDewpointWater temp
2017-Oct-06 21:08N 37°52' W 122°19'1 6.0
2017-Oct-06 21:00N 37°52' W 122°20'6 4.4
2017-Oct-06 19:39N 37°50' W 122°27'1 7.8
2017-Oct-06 19:30N 37°49' W 122°28'1 1.9
2017-Oct-06 19:00N 37°50' W 122°27'1 2.5
2017-Oct-06 18:30N 37°49' W 122°25'3 5.3
2017-Oct-06 17:59N 37°51' W 122°22'3 5.9
2017-Oct-06 17:30N 37°52' W 122°19'  
2017-Sep-28 21:10N 37°52' W 122°19'1 4.8
2017-Sep-28 20:56N 37°51' W 122°20'5 7.1
2017-Sep-28 20:14N 37°49' W 122°26'2 6.6
2017-Sep-28 20:00N 37°49' W 122°28'16 5.6
2017-Sep-28 17:04N 37°33' W 122°33'1 6.1
2017-Sep-28 16:55N 37°32' W 122°33'2 5.9
2017-Sep-28 16:30N 37°30' W 122°32'3 5.3
2017-Sep-28 16:00N 37°29' W 122°29'1 0.1
2017-Sep-27 20:43N 37°30' W 122°29'0 0.3
2017-Sep-27 20:30N 37°30' W 122°29'2 4.6
2017-Sep-27 20:00N 37°28' W 122°30'  

Dump ship's entire track history